St John River @ Ft Kent, Me

St John River @ Ft Kent, ME
 Total Drainage Area: 5,914 sq. miles 
 Drainage Area Controlled by Corps Dams: 0 sq. miles (0%) 
 Warning Flow/Stage: 109,000 cfs / 23.0 feet 
 Flood Flow/Stage: 128,000 cfs / 25.0 feet 
Date Time
(Eastern)
Stage
(ft)
Flow
(cfs)
CSM
(cfs / sq. mi.)
Jan-31 03:30 pm 5.16 5,243 .9
Jan-31 02:30 pm 5.15 5,211 .9
Jan-31 01:30 pm 5.15 5,211 .9
Jan-31 12:30 pm 5.15 5,211 .9
Jan-31 11:30 am 5.14 5,179 .9
Jan-31 10:30 am 5.12 5,115 .9
Jan-31 09:30 am 5.12 5,115 .9
Jan-31 08:30 am 5.11 5,084 .9
Jan-31 07:30 am 5.10 5,052 .9
Jan-31 06:30 am 5.11 5,084 .9
Jan-31 05:30 am 5.12 5,115 .9
Jan-31 04:30 am 5.12 5,115 .9
Jan-31 03:30 am 5.13 5,147 .9
Jan-31 02:30 am 5.13 5,147 .9
Jan-31 01:30 am 5.13 5,147 .9
Jan-31 12:30 am 5.15 5,211 .9
Jan-30 11:30 pm 5.16 5,243 .9
Jan-30 10:30 pm 5.18 5,307 .9
Jan-30 09:30 pm 5.19 5,339 .9
Jan-30 08:30 pm 5.20 5,372 .9
Jan-30 07:30 pm 5.21 5,404 .9
Jan-30 06:30 pm 5.21 5,404 .9
Jan-30 05:30 pm 5.23 5,470 .9
Jan-30 04:30 pm 5.24 5,503 .9
Jan-30 03:30 pm 5.28 5,635 1.0
Report Generated January 31, 2023 09:19 pm